createdAt,value
2019-01-18T00:00:43.570Z,19.66
2019-01-18T00:01:43.617Z,19.73
2019-01-18T00:02:43.540Z,19.76
2019-01-18T00:03:43.588Z,19.74
2019-01-18T00:04:43.525Z,19.73
2019-01-18T00:05:43.539Z,19.76
2019-01-18T00:06:43.504Z,19.76
2019-01-18T00:07:43.492Z,19.70
2019-01-18T00:08:43.467Z,19.66
2019-01-18T00:09:43.510Z,19.62
2019-01-18T00:10:43.482Z,19.66
2019-01-18T00:11:43.447Z,19.74
2019-01-18T00:12:43.447Z,19.71
2019-01-18T00:13:43.422Z,19.71
2019-01-18T00:14:43.476Z,19.77
2019-01-18T00:15:43.447Z,19.73
2019-01-18T00:16:43.384Z,19.77
2019-01-18T00:17:43.380Z,19.76
2019-01-18T00:18:43.357Z,19.76
2019-01-18T00:19:43.359Z,19.76
2019-01-18T00:20:43.399Z,19.73
2019-01-18T00:21:43.391Z,19.66
2019-01-18T00:22:43.334Z,19.76
2019-01-18T00:23:43.334Z,19.71
2019-01-18T00:24:43.394Z,19.67
2019-01-18T00:25:43.280Z,19.70
2019-01-18T00:26:43.297Z,19.63
2019-01-18T00:27:43.285Z,19.64
2019-01-18T00:28:43.249Z,19.58
2019-01-18T00:29:43.281Z,19.54
2019-01-18T00:30:43.224Z,19.62
2019-01-18T00:31:43.237Z,19.63
2019-01-18T00:32:43.230Z,19.55
2019-01-18T00:33:43.208Z,19.62
2019-01-18T00:34:43.220Z,19.58
2019-01-18T00:35:43.176Z,19.63
2019-01-18T00:36:43.224Z,19.62
2019-01-18T00:37:43.145Z,19.70
2019-01-18T00:38:43.151Z,19.67
2019-01-18T00:39:43.164Z,19.59
2019-01-18T00:40:43.134Z,19.70
2019-01-18T00:41:43.105Z,19.63
2019-01-18T00:42:43.184Z,19.56
2019-01-18T00:43:43.107Z,19.52
2019-01-18T00:44:43.115Z,19.62
2019-01-18T00:45:43.088Z,19.62
2019-01-18T00:46:43.049Z,19.52
2019-01-18T00:47:43.077Z,19.52
2019-01-18T00:48:43.034Z,19.56
2019-01-18T00:49:43.024Z,19.56
2019-01-18T00:50:43.134Z,19.58
2019-01-18T00:51:43.017Z,19.58
2019-01-18T00:52:43.019Z,19.54
2019-01-18T00:53:43.017Z,19.59
2019-01-18T00:54:42.987Z,19.58
2019-01-18T00:55:43.075Z,19.62
2019-01-18T00:56:42.965Z,19.51
2019-01-18T00:57:42.968Z,19.56
2019-01-18T00:58:42.934Z,19.48
2019-01-18T00:59:42.938Z,19.62
2019-01-18T01:00:42.950Z,19.63
2019-01-18T01:01:42.888Z,19.62
2019-01-18T01:02:42.877Z,19.64
2019-01-18T01:03:42.860Z,19.66
2019-01-18T01:04:42.879Z,19.64
2019-01-18T01:05:42.859Z,19.73
2019-01-18T01:06:42.841Z,19.73
2019-01-18T01:07:42.814Z,19.69
2019-01-18T01:08:42.801Z,19.58
2019-01-18T01:09:42.806Z,19.69
2019-01-18T01:10:42.792Z,19.69
2019-01-18T01:11:42.785Z,19.62
2019-01-18T01:12:42.774Z,19.59
2019-01-18T01:13:42.792Z,19.59
2019-01-18T01:14:42.739Z,19.63
2019-01-18T01:15:42.743Z,19.56
2019-01-18T01:16:42.718Z,19.54
2019-01-18T01:17:42.705Z,19.52
2019-01-18T01:18:42.698Z,19.54
2019-01-18T01:19:42.706Z,19.52
2019-01-18T01:20:42.755Z,19.49
2019-01-18T01:21:42.683Z,19.51
2019-01-18T01:22:42.651Z,19.55
2019-01-18T01:23:42.646Z,19.59
2019-01-18T01:24:42.648Z,19.63
2019-01-18T01:25:42.708Z,19.59
2019-01-18T01:26:42.641Z,19.63
2019-01-18T01:27:42.600Z,19.66
2019-01-18T01:28:42.676Z,19.63
2019-01-18T01:29:43.130Z,19.56
2019-01-18T01:30:42.600Z,19.58
2019-01-18T01:31:42.551Z,19.59
2019-01-18T01:32:42.575Z,19.52
2019-01-18T01:33:42.533Z,19.55
2019-01-18T01:34:42.514Z,19.51
2019-01-18T01:35:42.518Z,19.49
2019-01-18T01:36:42.512Z,19.48
2019-01-18T01:37:42.497Z,19.45
2019-01-18T01:38:42.477Z,19.52
2019-01-18T01:39:42.508Z,19.56
2019-01-18T01:40:42.469Z,19.51
2019-01-18T01:41:42.483Z,19.55
2019-01-18T01:42:42.457Z,19.49
2019-01-18T01:43:42.446Z,19.59
2019-01-18T01:44:42.466Z,19.59
2019-01-18T01:45:42.477Z,19.66
2019-01-18T01:46:42.381Z,19.54
2019-01-18T01:47:42.406Z,19.54
2019-01-18T01:48:42.366Z,19.51
2019-01-18T01:49:42.361Z,19.59
2019-01-18T01:50:42.408Z,19.62
2019-01-18T01:51:42.350Z,19.51
2019-01-18T01:52:42.332Z,19.52
2019-01-18T01:53:42.385Z,19.52
2019-01-18T01:54:42.305Z,19.62
2019-01-18T01:55:42.295Z,19.55
2019-01-18T01:56:42.334Z,19.55
2019-01-18T01:57:42.263Z,19.63
2019-01-18T01:58:42.249Z,19.58
2019-01-18T01:59:42.249Z,19.69
2019-01-18T02:00:42.227Z,19.59
2019-01-18T02:01:42.256Z,19.63
2019-01-18T02:02:42.218Z,19.62
2019-01-18T02:03:42.191Z,19.63
2019-01-18T02:04:42.196Z,19.48
2019-01-18T02:05:42.171Z,19.54
2019-01-18T02:06:42.167Z,19.55
2019-01-18T02:07:42.161Z,19.41
2019-01-18T02:08:42.150Z,19.44
2019-01-18T02:09:42.127Z,19.48
2019-01-18T02:10:42.128Z,19.41
2019-01-18T02:11:42.161Z,19.48
2019-01-18T02:12:42.113Z,19.47
2019-01-18T02:13:42.087Z,19.41
2019-01-18T02:14:42.082Z,19.40
2019-01-18T02:15:42.092Z,19.45
2019-01-18T02:16:42.063Z,19.56
2019-01-18T02:17:42.145Z,19.40
2019-01-18T02:18:42.050Z,19.49
2019-01-18T02:19:42.024Z,19.59
2019-01-18T02:20:42.048Z,19.58
2019-01-18T02:21:42.277Z,19.56
2019-01-18T02:22:42.016Z,19.47
2019-01-18T02:23:42.019Z,19.55
2019-01-18T02:24:42.017Z,19.44
2019-01-18T02:25:41.962Z,19.47
2019-01-18T02:26:41.991Z,19.45
2019-01-18T02:27:41.941Z,19.44
2019-01-18T02:28:41.926Z,19.39
2019-01-18T02:29:41.951Z,19.47
2019-01-18T02:30:41.900Z,19.48
2019-01-18T02:31:41.891Z,19.41
2019-01-18T02:32:41.921Z,19.54
2019-01-18T02:33:41.907Z,19.49
2019-01-18T02:34:41.926Z,19.62
2019-01-18T02:35:41.844Z,19.51
2019-01-18T02:36:41.851Z,19.59
2019-01-18T02:37:41.839Z,19.52
2019-01-18T02:38:41.807Z,19.52
2019-01-18T02:39:41.822Z,19.52
2019-01-18T02:40:41.781Z,19.63
2019-01-18T02:41:41.793Z,19.54
2019-01-18T02:42:41.784Z,19.52
2019-01-18T02:43:41.749Z,19.56
2019-01-18T02:44:41.755Z,19.54
2019-01-18T02:45:41.771Z,19.54
2019-01-18T02:46:41.741Z,19.54
2019-01-18T02:47:41.728Z,19.55
2019-01-18T02:48:41.705Z,19.51
2019-01-18T02:49:41.688Z,19.52
2019-01-18T02:50:41.849Z,19.54
2019-01-18T02:51:41.665Z,19.54
2019-01-18T02:52:41.693Z,19.47
2019-01-18T02:53:41.668Z,19.44
2019-01-18T02:54:41.690Z,19.44
2019-01-18T02:55:41.753Z,19.44
2019-01-18T02:56:41.753Z,19.44
2019-01-18T02:57:41.651Z,19.39
2019-01-18T02:58:41.616Z,19.41
2019-01-18T02:59:41.672Z,19.36
2019-01-18T03:00:41.633Z,19.41
2019-01-18T03:01:41.566Z,19.45
2019-01-18T03:02:41.554Z,19.40
2019-01-18T03:03:41.530Z,19.49
2019-01-18T03:04:41.543Z,19.52
2019-01-18T03:05:41.533Z,19.54
2019-01-18T03:06:41.522Z,19.51
2019-01-18T03:07:41.502Z,19.51
2019-01-18T03:08:41.468Z,19.52
2019-01-18T03:09:41.464Z,19.55
2019-01-18T03:10:41.478Z,19.51
2019-01-18T03:11:41.594Z,19.56
2019-01-18T03:12:41.453Z,19.55
2019-01-18T03:13:41.476Z,19.47
2019-01-18T03:14:41.415Z,19.44
2019-01-18T03:15:41.400Z,19.41
2019-01-18T03:16:41.459Z,19.44
2019-01-18T03:17:41.432Z,19.41
2019-01-18T03:18:41.367Z,19.37
2019-01-18T03:19:41.428Z,19.37
2019-01-18T03:20:41.433Z,19.39
2019-01-18T03:21:41.374Z,19.40
2019-01-18T03:22:41.319Z,19.45
2019-01-18T03:23:41.346Z,19.41
2019-01-18T03:24:41.328Z,19.47
2019-01-18T03:25:41.316Z,19.47
2019-01-18T03:26:41.298Z,19.56
2019-01-18T03:27:41.285Z,19.48
2019-01-18T03:28:41.274Z,19.45
2019-01-18T03:29:41.235Z,19.48
2019-01-18T03:30:41.246Z,19.45
2019-01-18T03:31:41.221Z,19.51
2019-01-18T03:32:41.220Z,19.44
2019-01-18T03:33:41.198Z,19.48
2019-01-18T03:34:41.185Z,19.47
2019-01-18T03:35:41.169Z,19.44
2019-01-18T03:36:41.182Z,19.47
2019-01-18T03:37:41.191Z,19.55
2019-01-18T03:38:41.191Z,19.55
2019-01-18T03:39:41.136Z,19.49
2019-01-18T03:40:41.123Z,19.55
2019-01-18T03:41:41.111Z,19.55
2019-01-18T03:42:41.124Z,19.52
2019-01-18T03:43:41.085Z,19.52
2019-01-18T03:44:41.071Z,19.49
2019-01-18T03:45:41.067Z,19.55
2019-01-18T03:46:41.050Z,19.44
2019-01-18T03:47:41.073Z,19.45
2019-01-18T03:48:41.035Z,19.45
2019-01-18T03:49:41.012Z,19.47
2019-01-18T03:50:41.082Z,19.39
2019-01-18T03:51:41.011Z,19.40
2019-01-18T03:52:40.978Z,19.37
2019-01-18T03:53:40.997Z,19.40
2019-01-18T03:54:40.962Z,19.33
2019-01-18T03:55:40.958Z,19.39
2019-01-18T03:56:40.943Z,19.47
2019-01-18T03:57:40.942Z,19.40
2019-01-18T03:58:40.951Z,19.37
2019-01-18T03:59:40.921Z,19.49
2019-01-18T04:00:40.906Z,19.51
2019-01-18T04:01:40.878Z,19.47
2019-01-18T04:02:40.875Z,19.47
2019-01-18T04:03:40.890Z,19.48
2019-01-18T04:04:40.874Z,19.41
2019-01-18T04:05:40.902Z,19.41
2019-01-18T04:06:40.867Z,19.44
2019-01-18T04:07:40.827Z,19.47
2019-01-18T04:08:40.826Z,19.34
2019-01-18T04:09:40.806Z,19.34
2019-01-18T04:10:40.800Z,19.33
2019-01-18T04:11:40.785Z,19.37
2019-01-18T04:12:40.768Z,19.36
2019-01-18T04:13:40.781Z,19.44
2019-01-18T04:14:40.782Z,19.47
2019-01-18T04:15:40.752Z,19.41
2019-01-18T04:16:40.743Z,19.39
2019-01-18T04:17:40.774Z,19.45
2019-01-18T04:18:40.711Z,19.47
2019-01-18T04:19:40.709Z,19.47
2019-01-18T04:20:40.714Z,19.56
2019-01-18T04:21:40.659Z,19.52
2019-01-18T04:22:40.652Z,19.58
2019-01-18T04:23:40.655Z,19.51
2019-01-18T04:24:40.671Z,19.47
2019-01-18T04:25:40.623Z,19.55
2019-01-18T04:26:40.619Z,19.44
2019-01-18T04:27:40.602Z,19.44
2019-01-18T04:28:40.594Z,19.44
2019-01-18T04:29:40.572Z,19.41
2019-01-18T04:30:40.593Z,19.51
2019-01-18T04:31:40.562Z,19.49
2019-01-18T04:32:40.551Z,19.54
2019-01-18T04:33:40.535Z,19.52
2019-01-18T04:34:40.521Z,19.55
2019-01-18T04:35:40.518Z,19.49
2019-01-18T04:36:40.493Z,19.55
2019-01-18T04:37:40.482Z,19.55
2019-01-18T04:38:40.479Z,19.49
2019-01-18T04:39:40.461Z,19.48
2019-01-18T04:40:41.352Z,19.40
2019-01-18T04:41:40.703Z,19.41
2019-01-18T04:42:40.444Z,19.44
2019-01-18T04:43:40.418Z,19.30
2019-01-18T04:44:40.429Z,19.37
2019-01-18T04:45:40.388Z,19.36
2019-01-18T04:46:40.383Z,19.36
2019-01-18T04:47:40.448Z,19.33
2019-01-18T04:48:40.374Z,19.31
2019-01-18T04:49:40.378Z,19.34
2019-01-18T04:50:40.449Z,19.33
2019-01-18T04:51:40.349Z,19.34
2019-01-18T04:52:40.381Z,19.31
2019-01-18T04:53:40.343Z,19.29
2019-01-18T04:54:40.350Z,19.29
2019-01-18T04:55:40.293Z,19.33
2019-01-18T04:56:40.271Z,19.29
2019-01-18T04:57:40.276Z,19.33
2019-01-18T04:58:40.266Z,19.34
2019-01-18T04:59:40.282Z,19.33
2019-01-18T05:00:41.462Z,19.31
2019-01-18T05:01:40.218Z,19.33
2019-01-18T05:02:40.208Z,19.39
2019-01-18T05:03:40.228Z,19.36
2019-01-18T05:04:40.208Z,19.44
2019-01-18T05:05:40.256Z,19.47
2019-01-18T05:06:40.185Z,19.49
2019-01-18T05:07:40.144Z,19.49
2019-01-18T05:08:40.144Z,19.45
2019-01-18T05:09:40.247Z,19.54
2019-01-18T05:10:40.131Z,19.55
2019-01-18T05:11:40.117Z,19.56
2019-01-18T05:12:40.095Z,19.54
2019-01-18T05:13:40.086Z,19.56
2019-01-18T05:14:40.080Z,19.55
2019-01-18T05:15:40.058Z,19.51
2019-01-18T05:16:40.113Z,19.49
2019-01-18T05:17:40.116Z,19.44
2019-01-18T05:18:40.300Z,19.48
2019-01-18T05:19:41.529Z,19.48
2019-01-18T05:20:40.075Z,19.39
2019-01-18T05:21:40.001Z,19.41
2019-01-18T05:22:40.013Z,19.44
2019-01-18T05:23:39.985Z,19.49
2019-01-18T05:24:40.197Z,19.49
2019-01-18T05:25:40.003Z,19.59
2019-01-18T05:26:39.946Z,19.52
2019-01-18T05:27:39.947Z,19.37
2019-01-18T05:28:39.915Z,19.33
2019-01-18T05:29:39.935Z,19.18
2019-01-18T05:30:39.896Z,18.93
2019-01-18T05:31:39.902Z,18.77
2019-01-18T05:32:39.875Z,18.49
2019-01-18T05:33:39.892Z,18.31
2019-01-18T05:34:39.885Z,18.16
2019-01-18T05:35:39.854Z,17.90
2019-01-18T05:36:39.865Z,17.74
2019-01-18T05:37:39.830Z,17.68
2019-01-18T05:38:39.799Z,17.57
2019-01-18T05:39:39.864Z,17.46
2019-01-18T05:40:39.786Z,17.30
2019-01-18T05:41:39.766Z,17.24
2019-01-18T05:42:39.768Z,17.08
2019-01-18T05:43:39.749Z,17.02
2019-01-18T05:44:40.869Z,16.83
2019-01-18T05:45:39.734Z,16.89
2019-01-18T05:46:39.713Z,16.86
2019-01-18T05:47:39.711Z,16.89
2019-01-18T05:48:39.688Z,16.78
2019-01-18T05:49:39.688Z,16.72
2019-01-18T05:50:39.711Z,16.65
2019-01-18T05:51:39.662Z,16.68
2019-01-18T05:52:39.654Z,16.61
2019-01-18T05:53:39.643Z,16.76
2019-01-18T05:54:39.622Z,16.84
2019-01-18T05:55:39.673Z,16.94
2019-01-18T05:56:39.621Z,17.16
2019-01-18T05:57:39.588Z,17.38
2019-01-18T05:58:39.580Z,17.67
2019-01-18T05:59:39.565Z,17.87
2019-01-18T06:00:39.567Z,18.07
2019-01-18T06:01:39.552Z,18.20
2019-01-18T06:02:39.538Z,18.35
2019-01-18T06:03:39.552Z,18.44
2019-01-18T06:04:39.511Z,18.58
2019-01-18T06:05:39.502Z,18.78
2019-01-18T06:06:39.492Z,18.86
2019-01-18T06:07:39.478Z,19.00
2019-01-18T06:08:39.476Z,19.11
2019-01-18T06:09:39.457Z,19.12
2019-01-18T06:10:39.453Z,19.27
2019-01-18T06:11:39.511Z,19.30
2019-01-18T06:12:39.430Z,19.31
2019-01-18T06:13:39.422Z,19.34
2019-01-18T06:14:39.403Z,19.44
2019-01-18T06:15:40.442Z,19.52
2019-01-18T06:16:39.387Z,19.62
2019-01-18T06:17:39.388Z,19.66
2019-01-18T06:18:39.368Z,19.64
2019-01-18T06:19:39.356Z,19.73
2019-01-18T06:20:39.467Z,19.82
2019-01-18T06:21:39.340Z,19.79
2019-01-18T06:22:39.314Z,19.86
2019-01-18T06:23:39.308Z,19.88
2019-01-18T06:24:39.298Z,19.92
2019-01-18T06:25:39.312Z,19.85
2019-01-18T06:26:39.300Z,19.91
2019-01-18T06:27:39.273Z,19.92
2019-01-18T06:28:39.302Z,20.03
2019-01-18T06:29:39.277Z,20.04
2019-01-18T06:30:39.234Z,20.00
2019-01-18T06:31:39.244Z,20.02
2019-01-18T06:32:39.209Z,20.00
2019-01-18T06:33:39.206Z,20.00
2019-01-18T06:34:39.202Z,19.92
2019-01-18T06:35:39.181Z,19.94
2019-01-18T06:36:39.168Z,19.85
2019-01-18T06:37:39.159Z,19.94
2019-01-18T06:38:39.153Z,19.89
2019-01-18T06:39:39.248Z,19.85
2019-01-18T06:40:39.136Z,19.85
2019-01-18T06:41:39.147Z,19.81
2019-01-18T06:42:39.165Z,19.84
2019-01-18T06:43:39.093Z,19.71
2019-01-18T06:44:39.128Z,19.79
2019-01-18T06:45:39.073Z,19.74
2019-01-18T06:46:39.113Z,19.69
2019-01-18T06:47:39.037Z,19.63
2019-01-18T06:48:39.030Z,19.62
2019-01-18T06:49:39.152Z,19.64
2019-01-18T06:50:39.502Z,19.66
2019-01-18T06:51:39.003Z,19.64
2019-01-18T06:52:39.382Z,19.55
2019-01-18T06:53:38.976Z,19.66
2019-01-18T06:54:38.967Z,19.54
2019-01-18T06:55:38.993Z,19.62
2019-01-18T06:56:38.956Z,19.59
2019-01-18T06:57:38.939Z,19.62
2019-01-18T06:58:38.958Z,19.64
2019-01-18T06:59:39.053Z,19.63
2019-01-18T07:00:38.915Z,19.59
2019-01-18T07:01:38.897Z,19.63
2019-01-18T07:02:38.948Z,19.64
2019-01-18T07:03:38.863Z,19.63
2019-01-18T07:04:41.431Z,19.62
2019-01-18T07:05:38.851Z,19.63
2019-01-18T07:06:38.847Z,19.64
2019-01-18T07:07:38.820Z,19.77
2019-01-18T07:08:38.838Z,19.71
2019-01-18T07:09:38.795Z,19.76
2019-01-18T07:10:38.803Z,19.77
2019-01-18T07:11:38.772Z,19.81
2019-01-18T07:12:38.769Z,19.77
2019-01-18T07:13:38.757Z,19.81
2019-01-18T07:14:38.787Z,19.88
2019-01-18T07:15:38.784Z,19.74
2019-01-18T07:16:38.717Z,19.92
2019-01-18T07:17:38.720Z,19.88
2019-01-18T07:18:38.752Z,19.88
2019-01-18T07:19:38.684Z,19.91
2019-01-18T07:20:38.748Z,20.00
2019-01-18T07:21:38.665Z,20.04
2019-01-18T07:22:38.665Z,20.04
2019-01-18T07:23:38.716Z,20.09
2019-01-18T07:24:38.646Z,20.13
2019-01-18T07:25:38.686Z,20.13
2019-01-18T07:26:38.616Z,20.18
2019-01-18T07:27:38.588Z,20.22
2019-01-18T07:28:38.583Z,20.16
2019-01-18T07:29:38.581Z,20.19
2019-01-18T07:30:38.700Z,20.28
2019-01-18T07:31:38.861Z,20.31
2019-01-18T07:32:38.689Z,20.31
2019-01-18T07:33:38.617Z,20.28
2019-01-18T07:34:38.569Z,20.39
2019-01-18T07:35:38.508Z,20.31
2019-01-18T07:36:38.509Z,20.37
2019-01-18T07:37:38.497Z,20.32
2019-01-18T07:38:38.476Z,20.40
2019-01-18T07:39:38.477Z,20.41
2019-01-18T07:40:39.322Z,20.37
2019-01-18T07:41:38.542Z,20.51
2019-01-18T07:42:38.433Z,20.50
2019-01-18T07:43:38.413Z,20.40
2019-01-18T07:44:38.430Z,20.44
2019-01-18T07:45:38.399Z,20.41
2019-01-18T07:46:38.432Z,20.32
2019-01-18T07:47:38.376Z,20.31
2019-01-18T07:48:38.432Z,20.34
2019-01-18T07:49:38.489Z,20.34
2019-01-18T07:50:38.353Z,20.31
2019-01-18T07:51:38.375Z,20.50
2019-01-18T07:52:38.360Z,20.39
2019-01-18T07:53:38.359Z,20.40
2019-01-18T07:54:38.312Z,20.41
2019-01-18T07:55:38.420Z,20.40
2019-01-18T07:56:38.391Z,20.43
2019-01-18T07:57:38.263Z,20.40
2019-01-18T07:58:38.274Z,20.31
2019-01-18T07:59:38.311Z,20.32
2019-01-18T08:00:39.046Z,20.31
2019-01-18T08:01:38.388Z,20.29
2019-01-18T08:02:38.214Z,20.29
2019-01-18T08:03:38.201Z,20.28
2019-01-18T08:04:38.197Z,20.31
2019-01-18T08:05:38.197Z,20.25
2019-01-18T08:06:38.170Z,20.13
2019-01-18T08:07:38.247Z,20.22
2019-01-18T08:08:38.144Z,20.21
2019-01-18T08:09:38.194Z,20.21
2019-01-18T08:10:38.121Z,20.18
2019-01-18T08:11:38.105Z,20.11
2019-01-18T08:12:38.123Z,20.13
2019-01-18T08:13:38.078Z,20.09
2019-01-18T08:14:38.100Z,20.11
2019-01-18T08:15:38.174Z,20.16
2019-01-18T08:16:38.049Z,20.11
2019-01-18T08:17:38.043Z,20.18
2019-01-18T08:18:38.044Z,20.14
2019-01-18T08:19:38.011Z,20.07
2019-01-18T08:20:38.092Z,20.14
2019-01-18T08:21:38.095Z,20.19
2019-01-18T08:22:38.022Z,20.16
2019-01-18T08:23:38.025Z,20.11
2019-01-18T08:24:37.963Z,20.11
2019-01-18T08:25:37.951Z,20.16
2019-01-18T08:26:37.940Z,20.13
2019-01-18T08:27:37.987Z,20.13
2019-01-18T08:28:37.983Z,20.16
2019-01-18T08:29:37.928Z,20.18
2019-01-18T08:30:37.912Z,20.13
2019-01-18T08:31:37.905Z,20.14
2019-01-18T08:32:37.900Z,20.13
2019-01-18T08:33:37.856Z,20.13
2019-01-18T08:34:37.847Z,20.22
2019-01-18T08:35:37.939Z,20.21
2019-01-18T08:36:37.844Z,20.24
2019-01-18T08:37:37.825Z,20.16
2019-01-18T08:38:37.831Z,20.28
2019-01-18T08:39:37.812Z,20.22
2019-01-18T08:40:37.782Z,20.31
2019-01-18T08:41:37.769Z,20.26
2019-01-18T08:42:37.777Z,20.26
2019-01-18T08:43:37.808Z,20.28
2019-01-18T08:44:37.846Z,20.37
2019-01-18T08:45:37.745Z,20.28
2019-01-18T08:46:37.721Z,20.29
2019-01-18T08:47:37.709Z,20.32
2019-01-18T08:48:37.735Z,20.32
2019-01-18T08:49:37.743Z,20.22
2019-01-18T08:50:49.602Z,20.28
2019-01-18T08:51:37.695Z,19.30
2019-01-18T08:52:37.750Z,19.00
2019-01-18T08:53:37.736Z,18.88
2019-01-18T08:54:38.421Z,17.33
2019-01-18T08:55:37.671Z,15.44
2019-01-18T08:56:37.647Z,14.26
2019-01-18T08:57:37.647Z,13.99
2019-01-18T08:58:37.606Z,13.75
2019-01-18T08:59:37.568Z,13.42
2019-01-18T09:00:37.556Z,13.12
2019-01-18T09:01:37.543Z,12.90
2019-01-18T09:02:37.548Z,12.90
2019-01-18T09:03:37.581Z,12.95
2019-01-18T09:04:37.557Z,12.86
2019-01-18T09:05:37.532Z,12.94
2019-01-18T09:06:37.544Z,12.98
2019-01-18T09:07:40.351Z,13.01
2019-01-18T09:08:37.709Z,13.09
2019-01-18T09:09:37.804Z,12.95
2019-01-18T09:10:37.568Z,13.05
2019-01-18T09:11:37.640Z,13.01
2019-01-18T09:12:37.599Z,13.01
2019-01-18T09:13:37.516Z,12.94
2019-01-18T09:14:37.402Z,12.90
2019-01-18T09:15:37.388Z,12.65
2019-01-18T09:16:37.378Z,12.62
2019-01-18T09:17:37.381Z,12.49
2019-01-18T09:18:37.357Z,12.78
2019-01-18T09:19:37.353Z,12.78
2019-01-18T09:20:37.406Z,12.90
2019-01-18T09:21:37.342Z,13.03
2019-01-18T09:22:37.309Z,12.76
2019-01-18T09:23:37.298Z,12.55
2019-01-18T09:24:37.319Z,12.31
2019-01-18T09:25:37.294Z,12.10
2019-01-18T09:26:37.274Z,11.95
2019-01-18T09:27:37.280Z,11.90
2019-01-18T09:28:37.239Z,11.78
2019-01-18T09:29:37.260Z,11.57
2019-01-18T09:30:37.218Z,11.50
2019-01-18T09:31:42.501Z,11.45
2019-01-18T09:32:38.202Z,11.33
2019-01-18T09:33:37.223Z,11.63
2019-01-18T09:34:37.189Z,11.59
2019-01-18T09:35:37.170Z,11.57
2019-01-18T09:36:37.170Z,11.45
2019-01-18T09:37:37.143Z,11.54
2019-01-18T09:38:37.138Z,12.04
2019-01-18T09:39:37.173Z,12.18
2019-01-18T09:40:37.110Z,12.42
2019-01-18T09:41:37.110Z,12.95
2019-01-18T09:42:37.087Z,13.44
2019-01-18T09:43:37.079Z,14.00
2019-01-18T09:44:37.142Z,14.58
2019-01-18T09:45:37.092Z,15.07
2019-01-18T09:46:37.041Z,15.57
2019-01-18T09:47:37.034Z,15.84
2019-01-18T09:48:37.022Z,16.21
2019-01-18T09:49:37.016Z,16.43
2019-01-18T09:50:37.154Z,16.76
2019-01-18T09:51:37.078Z,17.04
2019-01-18T09:52:36.979Z,17.16
2019-01-18T09:53:36.971Z,17.36
2019-01-18T09:54:36.993Z,17.54
2019-01-18T09:55:36.965Z,17.67
2019-01-18T09:56:36.964Z,17.83
2019-01-18T09:57:36.933Z,17.86
2019-01-18T09:58:36.917Z,17.98
2019-01-18T09:59:36.968Z,18.10
2019-01-18T10:00:36.893Z,18.15
2019-01-18T10:01:36.894Z,18.28
2019-01-18T10:02:36.908Z,18.29
2019-01-18T10:03:36.860Z,18.45
2019-01-18T10:04:36.845Z,18.45
2019-01-18T10:05:36.853Z,18.53
2019-01-18T10:06:36.879Z,18.55
2019-01-18T10:07:36.808Z,18.66
2019-01-18T10:08:36.815Z,18.71
2019-01-18T10:09:36.820Z,18.88
2019-01-18T10:10:36.787Z,18.89
2019-01-18T10:11:36.810Z,18.93
2019-01-18T10:12:36.762Z,18.99
2019-01-18T10:13:36.808Z,18.95
2019-01-18T10:14:36.742Z,19.15
2019-01-18T10:15:36.740Z,19.14
2019-01-18T10:16:36.706Z,19.26
2019-01-18T10:17:36.700Z,19.22
2019-01-18T10:18:36.720Z,19.30
2019-01-18T10:19:36.699Z,19.29
2019-01-18T10:20:37.526Z,19.37
2019-01-18T10:21:36.687Z,19.34
2019-01-18T10:22:36.656Z,19.39
2019-01-18T10:23:36.750Z,19.41
2019-01-18T10:24:36.627Z,19.41
2019-01-18T10:25:36.698Z,19.41
2019-01-18T10:26:36.594Z,19.44
2019-01-18T10:27:36.655Z,19.56
2019-01-18T10:28:36.602Z,19.59
2019-01-18T10:29:36.562Z,19.64
2019-01-18T10:30:36.568Z,19.64
2019-01-18T10:31:36.598Z,19.62
2019-01-18T10:32:36.532Z,19.77
2019-01-18T10:33:36.527Z,19.84
2019-01-18T10:34:36.515Z,19.86
2019-01-18T10:35:36.609Z,19.88
2019-01-18T10:36:36.483Z,20.02
2019-01-18T10:37:36.474Z,20.04
2019-01-18T10:38:36.476Z,20.02
2019-01-18T10:39:36.458Z,20.09
2019-01-18T10:40:36.457Z,20.09
2019-01-18T10:41:36.445Z,20.16
2019-01-18T10:42:36.473Z,20.10
2019-01-18T10:43:36.412Z,20.11
2019-01-18T10:44:36.470Z,20.22
2019-01-18T10:45:36.390Z,20.22
2019-01-18T10:46:36.371Z,20.19
2019-01-18T10:47:36.363Z,20.21
2019-01-18T10:48:36.413Z,20.22
2019-01-18T10:49:36.343Z,20.16
2019-01-18T10:50:36.447Z,20.14
2019-01-18T10:51:36.317Z,20.18
2019-01-18T10:52:36.322Z,20.29
2019-01-18T10:53:36.289Z,20.24
2019-01-18T10:54:36.288Z,20.28
2019-01-18T10:55:36.274Z,20.14
2019-01-18T10:56:36.269Z,20.22
2019-01-18T10:57:36.288Z,20.22
2019-01-18T10:58:36.268Z,20.31
2019-01-18T10:59:36.414Z,20.26
2019-01-18T11:00:36.255Z,20.31
2019-01-18T11:01:36.231Z,20.28
2019-01-18T11:02:36.201Z,20.26
2019-01-18T11:03:36.197Z,20.40
2019-01-18T11:04:36.182Z,20.32
2019-01-18T11:05:36.244Z,20.43
2019-01-18T11:06:36.147Z,20.43
2019-01-18T11:07:36.140Z,20.44
2019-01-18T11:08:36.133Z,20.51
2019-01-18T11:09:36.129Z,20.37
2019-01-18T11:10:36.182Z,20.48
2019-01-18T11:11:36.163Z,20.47
2019-01-18T11:12:36.096Z,20.50
2019-01-18T11:13:36.080Z,20.50
2019-01-18T11:14:36.126Z,20.50
2019-01-18T11:15:36.311Z,20.43
2019-01-18T11:16:36.077Z,20.47
2019-01-18T11:17:36.029Z,20.51
2019-01-18T11:18:36.019Z,20.43
2019-01-18T11:19:36.009Z,20.47
2019-01-18T11:20:36.115Z,20.48
2019-01-18T11:21:36.015Z,20.47
2019-01-18T11:22:36.016Z,20.47
2019-01-18T11:23:36.215Z,20.50
2019-01-18T11:24:35.948Z,20.59
2019-01-18T11:25:35.978Z,20.56
2019-01-18T11:26:35.945Z,20.52
2019-01-18T11:27:36.019Z,20.66
2019-01-18T11:28:35.942Z,20.62
2019-01-18T11:29:35.911Z,20.72
2019-01-18T11:30:35.888Z,20.65
2019-01-18T11:31:35.900Z,20.66
2019-01-18T11:32:35.971Z,20.59
2019-01-18T11:33:35.925Z,20.62
2019-01-18T11:34:36.317Z,20.69
2019-01-18T11:35:35.842Z,20.62
2019-01-18T11:36:35.815Z,20.72
2019-01-18T11:37:35.834Z,20.66
2019-01-18T11:38:35.859Z,20.60
2019-01-18T11:39:35.796Z,20.63
2019-01-18T11:40:35.826Z,20.63
2019-01-18T11:41:35.903Z,20.60
2019-01-18T11:42:35.804Z,20.65
2019-01-18T11:43:35.780Z,20.66
2019-01-18T11:44:35.742Z,20.69
2019-01-18T11:45:35.789Z,20.65
2019-01-18T11:46:35.728Z,20.70
2019-01-18T11:47:35.802Z,20.67
2019-01-18T11:48:35.681Z,20.72
2019-01-18T11:49:35.669Z,20.70
2019-01-18T11:50:35.781Z,20.66
2019-01-18T11:51:35.667Z,20.69
2019-01-18T11:52:35.645Z,20.70
2019-01-18T11:53:35.626Z,20.74
2019-01-18T11:54:35.627Z,20.72
2019-01-18T11:55:35.631Z,20.60
2019-01-18T11:56:35.589Z,20.66
2019-01-18T11:57:35.602Z,20.69
2019-01-18T11:58:35.574Z,20.62
2019-01-18T11:59:35.579Z,20.74
2019-01-18T12:00:37.916Z,20.74
2019-01-18T12:01:35.542Z,20.74
2019-01-18T12:02:35.559Z,20.75
2019-01-18T12:03:35.530Z,20.69
2019-01-18T12:04:35.619Z,20.70
2019-01-18T12:05:35.500Z,20.75
2019-01-18T12:06:35.490Z,20.77
2019-01-18T12:07:35.469Z,20.72
2019-01-18T12:08:35.468Z,20.74
2019-01-18T12:09:35.450Z,20.80
2019-01-18T12:10:35.462Z,20.81
2019-01-18T12:11:35.476Z,20.78
2019-01-18T12:12:35.424Z,20.87
2019-01-18T12:13:35.414Z,20.84
2019-01-18T12:14:35.394Z,20.93
2019-01-18T12:15:35.467Z,20.88
2019-01-18T12:16:35.372Z,20.90
2019-01-18T12:17:35.598Z,20.97
2019-01-18T12:18:35.401Z,21.02
2019-01-18T12:19:35.342Z,21.05
2019-01-18T12:20:35.423Z,20.93
2019-01-18T12:21:37.186Z,21.09
2019-01-18T12:22:35.307Z,21.00
2019-01-18T12:23:35.301Z,21.03
2019-01-18T12:24:35.319Z,21.18
2019-01-18T12:25:35.292Z,21.12
2019-01-18T12:26:35.291Z,21.11
2019-01-18T12:27:35.253Z,21.15
2019-01-18T12:28:35.293Z,21.30
2019-01-18T12:29:35.233Z,21.17
2019-01-18T12:30:35.262Z,21.14
2019-01-18T12:31:35.211Z,21.17
2019-01-18T12:32:35.859Z,21.11
2019-01-18T12:33:35.396Z,21.17
2019-01-18T12:34:35.581Z,21.24
2019-01-18T12:35:35.380Z,21.21
2019-01-18T12:36:35.157Z,21.11
2019-01-18T12:37:35.139Z,21.20
2019-01-18T12:38:35.145Z,21.29
2019-01-18T12:39:35.121Z,21.27
2019-01-18T12:40:35.104Z,21.27
2019-01-18T12:41:35.120Z,21.33
2019-01-18T12:42:35.082Z,21.29
2019-01-18T12:43:35.163Z,21.21
2019-01-18T12:44:35.082Z,21.25
2019-01-18T12:45:35.122Z,21.22
2019-01-18T12:46:35.036Z,21.24
2019-01-18T12:47:35.171Z,21.24
2019-01-18T12:48:35.040Z,21.27
2019-01-18T12:49:35.514Z,21.25
2019-01-18T12:50:35.105Z,21.20
2019-01-18T12:51:35.082Z,21.17
2019-01-18T12:52:34.971Z,21.18